Time;durP1;ratioP1;P1;durP2;ratioP2;P2;SDS_P1;SDS_P2;PMS_P1;PMS_P2;Temp;Humidity;BMP_temperature;BMP_pressure;BME280_temperature;BME280_humidity;BME280_pressure;Samples;Min_cycle;Max_cycle;Signal;HPM_P1;HPM_P2
2022/09/13 00:01:34;;;;;;;1.13;0.60;;;;;;;;;;5026974;28;20045;-68
2022/09/13 00:04:03;;;;;;;0.93;0.65;;;;;;;;;;5028988;28;20463;-67
2022/09/13 00:06:31;;;;;;;1.33;0.75;;;;;;;;;;5024864;28;20055;-66
2022/09/13 00:09:00;;;;;;;1.35;0.77;;;;;;;;;;5031247;28;20042;-67
2022/09/13 00:11:30;;;;;;;0.90;0.80;;;;;;;;;;5031500;28;20041;-68
2022/09/13 00:13:59;;;;;;;1.15;0.75;;;;;;;;;;5032451;28;20404;-67
2022/09/13 00:16:28;;;;;;;3.20;1.40;;;;;;;;;;5029465;28;20044;-67
2022/09/13 00:18:57;;;;;;;2.15;0.88;;;;;;;;;;5030647;28;20053;-66
2022/09/13 00:21:26;;;;;;;0.60;0.60;;;;;;;;;;5028026;28;20053;-67
2022/09/13 00:23:55;;;;;;;0.98;0.77;;;;;;;;;;5030676;28;20049;-67
2022/09/13 00:26:24;;;;;;;1.88;0.80;;;;;;;;;;5029284;28;20053;-67
2022/09/13 00:28:55;;;;;;;0.57;0.57;;;;;;;;;;5030897;28;20494;-67
2022/09/13 00:31:25;;;;;;;1.15;0.65;;;;;;;;;;5030079;28;20053;-66
2022/09/13 00:33:53;;;;;;;0.90;0.73;;;;;;;;;;5029637;28;20406;-66
2022/09/13 00:36:21;;;;;;;1.25;0.90;;;;;;;;;;5027242;28;20435;-67
2022/09/13 00:38:50;;;;;;;1.50;0.80;;;;;;;;;;5029604;28;20037;-67
2022/09/13 00:41:19;;;;;;;1.33;0.85;;;;;;;;;;5028149;28;20077;-67
2022/09/13 00:43:49;;;;;;;0.70;0.50;;;;;;;;;;5030781;28;20076;-67
2022/09/13 00:46:22;;;;;;;0.55;0.55;;;;;;;;;;5028854;28;20053;-68
2022/09/13 00:48:51;;;;;;;3.53;0.90;;;;;;;;;;5027907;28;20072;-67
2022/09/13 00:51:19;;;;;;;1.65;0.85;;;;;;;;;;5030326;28;20049;-67
2022/09/13 00:53:49;;;;;;;1.45;0.80;;;;;;;;;;5028733;28;20054;-67
2022/09/13 00:56:19;;;;;;;0.88;0.57;;;;;;;;;;5028705;28;20094;-67
2022/09/13 00:58:49;;;;;;;0.88;0.70;;;;;;;;;;5031052;28;20052;-67
2022/09/13 01:01:19;;;;;;;1.70;0.73;;;;;;;;;;5029525;28;20081;-66
2022/09/13 01:03:49;;;;;;;1.98;1.27;;;;;;;;;;5030049;28;20460;-66
2022/09/13 01:06:19;;;;;;;1.00;0.65;;;;;;;;;;5026437;28;20390;-68
2022/09/13 01:08:49;;;;;;;0.60;0.50;;;;;;;;;;5029215;28;20057;-66
2022/09/13 01:11:21;;;;;;;0.43;0.32;;;;;;;;;;5028702;28;20056;-67
2022/09/13 01:13:50;;;;;;;0.85;0.50;;;;;;;;;;5029248;28;20059;-67
2022/09/13 01:16:18;;;;;;;0.85;0.60;;;;;;;;;;5027052;28;20140;-67
2022/09/13 01:18:46;;;;;;;1.50;0.95;;;;;;;;;;5027973;28;20212;-67
2022/09/13 01:21:33;;;;;;;1.83;0.80;;;;;;;;;;5027073;28;20045;-67
2022/09/13 01:24:21;;;;;;;0.90;0.60;;;;;;;;;;5028710;28;20242;-69
2022/09/13 01:27:07;;;;;;;0.85;0.57;;;;;;;;;;5031336;28;20055;-67
2022/09/13 01:29:47;;;;;;;1.60;0.95;;;;;;;;;;5028076;28;20572;-67
2022/09/13 01:32:23;;;;;;;1.48;0.82;;;;;;;;;;5029908;28;20049;-68
2022/09/13 01:34:56;;;;;;;1.17;0.60;;;;;;;;;;5031404;28;20037;-67
2022/09/13 01:37:31;;;;;;;2.45;0.82;;;;;;;;;;5044457;28;20107;-67
2022/09/13 01:40:03;;;;;;;0.88;0.40;;;;;;;;;;5048491;28;20048;-67
2022/09/13 01:42:38;;;;;;;1.35;0.77;;;;;;;;;;5044302;28;20048;-67
2022/09/13 01:45:13;;;;;;;1.17;0.60;;;;;;;;;;5038416;28;20051;-66
2022/09/13 01:47:47;;;;;;;1.20;0.60;;;;;;;;;;5030354;28;20060;-66
2022/09/13 01:50:19;;;;;;;0.40;0.40;;;;;;;;;;5029341;28;20145;-67
2022/09/13 01:52:51;;;;;;;1.17;0.65;;;;;;;;;;5026256;28;20416;-67
2022/09/13 01:55:26;;;;;;;1.45;0.70;;;;;;;;;;5029136;28;20045;-67
2022/09/13 01:57:54;;;;;;;;;;;;;;;;;;5025989;28;20060;-66
2022/09/13 02:00:22;;;;;;;1.50;0.70;;;;;;;;;;5028641;28;19921;-67
2022/09/13 02:02:53;;;;;;;1.13;0.75;;;;;;;;;;5025426;28;20048;-67
2022/09/13 02:05:24;;;;;;;1.05;0.50;;;;;;;;;;5029025;28;20064;-67
2022/09/13 02:07:57;;;;;;;0.90;0.47;;;;;;;;;;5028218;28;20049;-67
2022/09/13 02:10:27;;;;;;;2.63;0.75;;;;;;;;;;5028603;28;20057;-67
2022/09/13 02:12:57;;;;;;;1.23;0.40;;;;;;;;;;5028455;28;20049;-68
2022/09/13 02:15:27;;;;;;;4.43;0.60;;;;;;;;;;5034014;28;20053;-67
2022/09/13 02:18:01;;;;;;;0.68;0.68;;;;;;;;;;5048104;28;20071;-67
2022/09/13 02:20:31;;;;;;;1.05;0.70;;;;;;;;;;5048223;28;20071;-67
2022/09/13 02:23:02;;;;;;;1.23;0.70;;;;;;;;;;5038929;28;20050;-66
2022/09/13 02:25:33;;;;;;;1.60;0.47;;;;;;;;;;5047526;28;20417;-66
2022/09/13 02:28:03;;;;;;;0.88;0.77;;;;;;;;;;5047657;28;20441;-68
2022/09/13 02:30:33;;;;;;;0.50;0.47;;;;;;;;;;5056485;28;20060;-66
2022/09/13 02:33:05;;;;;;;0.20;0.20;;;;;;;;;;5046665;28;20045;-68
2022/09/13 02:35:35;;;;;;;0.52;0.52;;;;;;;;;;5041630;28;20052;-66
2022/09/13 02:38:05;;;;;;;0.88;0.50;;;;;;;;;;5026393;28;20551;-67
2022/09/13 02:40:38;;;;;;;2.00;0.77;;;;;;;;;;5025415;28;20049;-67
2022/09/13 02:43:11;;;;;;;1.23;0.57;;;;;;;;;;5024355;28;20059;-66
2022/09/13 02:45:43;;;;;;;0.63;0.57;;;;;;;;;;5029247;28;20037;-67
2022/09/13 02:48:17;;;;;;;0.95;0.60;;;;;;;;;;5027734;28;20087;-66
2022/09/13 02:50:50;;;;;;;1.75;0.60;;;;;;;;;;5028575;28;20076;-66
2022/09/13 02:53:24;;;;;;;1.50;0.60;;;;;;;;;;5027502;28;20424;-67
2022/09/13 02:55:55;;;;;;;1.67;0.68;;;;;;;;;;5024643;28;20136;-67
2022/09/13 02:58:26;;;;;;;0.47;0.47;;;;;;;;;;5028591;28;20048;-66
2022/09/13 03:00:54;;;;;;;1.42;0.73;;;;;;;;;;5028547;28;20056;-67
2022/09/13 03:03:24;;;;;;;0.80;0.50;;;;;;;;;;5027127;28;20053;-67
2022/09/13 03:05:53;;;;;;;0.30;0.30;;;;;;;;;;5028385;28;20046;-66
2022/09/13 03:08:23;;;;;;;0.30;0.17;;;;;;;;;;5025831;28;20064;-67
2022/09/13 03:10:57;;;;;;;1.50;0.70;;;;;;;;;;5028139;28;20072;-67
2022/09/13 03:13:43;;;;;;;0.98;0.45;;;;;;;;;;5025816;28;20057;-67
2022/09/13 03:16:19;;;;;;;0.40;0.40;;;;;;;;;;5025984;28;20497;-66
2022/09/13 03:18:57;;;;;;;1.23;0.40;;;;;;;;;;5027762;28;20053;-67
2022/09/13 03:21:40;;;;;;;1.58;0.55;;;;;;;;;;5028599;28;20425;-67
2022/09/13 03:24:14;;;;;;;0.70;0.47;;;;;;;;;;5024705;28;20057;-66
2022/09/13 03:26:46;;;;;;;0.88;0.65;;;;;;;;;;5045979;28;20053;-66
2022/09/13 03:29:21;;;;;;;1.85;0.82;;;;;;;;;;5047693;28;20045;-66
2022/09/13 03:31:52;;;;;;;1.40;1.05;;;;;;;;;;5046779;28;20049;-67
2022/09/13 03:34:26;;;;;;;1.85;0.65;;;;;;;;;;5054036;28;20045;-67
2022/09/13 03:36:56;;;;;;;0.43;0.40;;;;;;;;;;5026064;28;20064;-66
2022/09/13 03:39:28;;;;;;;0.30;0.30;;;;;;;;;;5027831;28;20049;-68
2022/09/13 03:41:58;;;;;;;1.48;0.80;;;;;;;;;;5023097;28;20053;-66
2022/09/13 03:44:28;;;;;;;1.83;0.80;;;;;;;;;;5028311;28;20083;-67
2022/09/13 03:46:58;;;;;;;1.30;0.43;;;;;;;;;;5029799;28;20045;-67
2022/09/13 03:49:29;;;;;;;1.58;0.73;;;;;;;;;;5031422;28;20053;-67
2022/09/13 03:51:59;;;;;;;0.80;0.30;;;;;;;;;;5029992;28;20397;-68
2022/09/13 03:54:30;;;;;;;0.25;0.25;;;;;;;;;;5028496;28;20053;-67
2022/09/13 03:57:11;;;;;;;0.82;0.30;;;;;;;;;;5047570;28;20057;-66
2022/09/13 03:59:42;;;;;;;0.52;0.52;;;;;;;;;;5047482;28;20051;-67
2022/09/13 04:02:11;;;;;;;0.40;0.40;;;;;;;;;;5051646;28;20519;-67
2022/09/13 04:04:42;;;;;;;0.30;0.30;;;;;;;;;;5044386;28;20089;-66
2022/09/13 04:07:14;;;;;;;0.85;0.47;;;;;;;;;;5050918;28;20051;-67
2022/09/13 04:09:42;;;;;;;2.38;0.60;;;;;;;;;;5048091;28;20079;-67
2022/09/13 04:12:10;;;;;;;0.47;0.38;;;;;;;;;;5050109;28;20496;-67
2022/09/13 04:14:39;;;;;;;1.50;0.45;;;;;;;;;;5047478;28;20045;-67
2022/09/13 04:17:07;;;;;;;1.45;0.50;;;;;;;;;;5026025;28;20512;-67
2022/09/13 04:19:35;;;;;;;1.13;0.90;;;;;;;;;;5031051;28;20045;-67
2022/09/13 04:22:05;;;;;;;0.85;0.70;;;;;;;;;;5028529;28;20041;-67
2022/09/13 04:24:35;;;;;;;0.30;0.30;;;;;;;;;;5022967;28;20053;-67
2022/09/13 04:27:03;;;;;;;0.40;0.40;;;;;;;;;;5042805;28;20147;-67
2022/09/13 04:29:32;;;;;;;0.73;0.35;;;;;;;;;;5044364;28;20052;-66
2022/09/13 04:32:00;;;;;;;0.82;0.50;;;;;;;;;;5042601;28;20049;-67
2022/09/13 04:34:28;;;;;;;0.70;0.55;;;;;;;;;;5041736;28;20052;-67
2022/09/13 04:36:57;;;;;;;0.63;0.55;;;;;;;;;;5034854;28;20080;-67
2022/09/13 04:39:27;;;;;;;0.50;0.50;;;;;;;;;;5027626;28;20069;-66
2022/09/13 04:41:55;;;;;;;0.40;0.22;;;;;;;;;;5025411;28;20049;-66
2022/09/13 04:44:24;;;;;;;1.55;0.75;;;;;;;;;;5029191;28;20409;-66
2022/09/13 04:46:52;;;;;;;11.27;0.60;;;;;;;;;;5029024;28;20053;-68
2022/09/13 04:49:20;;;;;;;1.10;0.60;;;;;;;;;;5031772;28;20045;-66
2022/09/13 04:51:49;;;;;;;0.52;0.40;;;;;;;;;;5031144;28;20073;-66
2022/09/13 04:54:18;;;;;;;0.50;0.47;;;;;;;;;;5028013;28;20057;-67
2022/09/13 04:56:48;;;;;;;0.68;0.30;;;;;;;;;;5051761;28;20055;-67
2022/09/13 04:59:16;;;;;;;0.95;0.40;;;;;;;;;;5051865;28;20047;-67
2022/09/13 05:01:45;;;;;;;0.20;0.20;;;;;;;;;;5051207;28;20049;-68
2022/09/13 05:04:13;;;;;;;2.53;0.63;;;;;;;;;;5052788;28;20501;-67
2022/09/13 05:06:41;;;;;;;0.50;0.50;;;;;;;;;;5027302;28;20477;-67
2022/09/13 05:09:12;;;;;;;0.43;0.38;;;;;;;;;;5029586;28;20498;-67
2022/09/13 05:11:40;;;;;;;0.40;0.22;;;;;;;;;;5023873;28;20049;-67
2022/09/13 05:14:11;;;;;;;1.17;0.43;;;;;;;;;;5028798;28;20508;-66
2022/09/13 05:16:42;;;;;;;0.68;0.47;;;;;;;;;;5026802;28;20056;-66
2022/09/13 05:19:12;;;;;;;0.52;0.40;;;;;;;;;;5023816;28;20145;-66
2022/09/13 05:21:40;;;;;;;0.50;0.50;;;;;;;;;;5015797;28;20529;-67
2022/09/13 05:24:08;;;;;;;2.42;0.40;;;;;;;;;;5022103;28;20060;-67
2022/09/13 05:26:37;;;;;;;0.30;0.30;;;;;;;;;;5021167;28;20524;-68
2022/09/13 05:29:05;;;;;;;0.47;0.40;;;;;;;;;;5022941;28;20061;-66
2022/09/13 05:31:36;;;;;;;0.38;0.38;;;;;;;;;;5021139;28;20408;-66
2022/09/13 05:34:06;;;;;;;0.32;0.17;;;;;;;;;;5027486;28;20108;-66
2022/09/13 05:36:34;;;;;;;1.55;0.70;;;;;;;;;;5026191;28;20056;-66
2022/09/13 05:39:03;;;;;;;0.32;0.30;;;;;;;;;;5030619;28;20480;-66
2022/09/13 05:41:51;;;;;;;0.30;0.30;;;;;;;;;;5027192;28;20049;-66
2022/09/13 05:44:19;;;;;;;0.77;0.60;;;;;;;;;;5028454;28;20485;-67
2022/09/13 05:46:49;;;;;;;0.82;0.70;;;;;;;;;;5029598;28;20045;-67
2022/09/13 05:49:18;;;;;;;0.40;0.30;;;;;;;;;;5030580;28;20057;-66
2022/09/13 05:51:46;;;;;;;0.30;0.30;;;;;;;;;;5030747;28;20437;-66
2022/09/13 05:54:14;;;;;;;0.45;0.30;;;;;;;;;;5030634;28;20045;-67
2022/09/13 05:56:43;;;;;;;0.63;0.50;;;;;;;;;;5044229;28;20048;-66
2022/09/13 05:59:14;;;;;;;0.20;0.20;;;;;;;;;;5042160;28;20044;-67
2022/09/13 06:01:42;;;;;;;0.22;0.22;;;;;;;;;;5050228;28;20045;-66
2022/09/13 06:04:15;;;;;;;0.95;0.50;;;;;;;;;;5049102;28;20554;-67
2022/09/13 06:06:43;;;;;;;0.30;0.30;;;;;;;;;;5018519;28;20049;-66
2022/09/13 06:09:12;;;;;;;1.63;0.50;;;;;;;;;;5030580;28;20052;-67
2022/09/13 06:11:41;;;;;;;0.63;0.40;;;;;;;;;;5029907;28;20053;-67
2022/09/13 06:14:09;;;;;;;1.50;0.65;;;;;;;;;;5030304;28;20053;-67
2022/09/13 06:16:38;;;;;;;1.08;0.50;;;;;;;;;;5027596;28;20385;-67
2022/09/13 06:19:07;;;;;;;0.28;0.28;;;;;;;;;;5027934;28;20049;-67
2022/09/13 06:21:37;;;;;;;0.55;0.52;;;;;;;;;;5029721;28;20493;-67
2022/09/13 06:24:05;;;;;;;0.30;0.30;;;;;;;;;;5028061;28;20304;-67
2022/09/13 06:26:34;;;;;;;0.63;0.50;;;;;;;;;;5030088;28;20055;-68
2022/09/13 06:29:02;;;;;;;0.52;0.32;;;;;;;;;;5029451;28;20132;-66
2022/09/13 06:31:30;;;;;;;1.48;1.15;;;;;;;;;;5030382;28;20413;-67
2022/09/13 06:34:01;;;;;;;2.17;1.33;;;;;;;;;;5027956;28;20052;-67
2022/09/13 06:36:30;;;;;;;0.90;0.60;;;;;;;;;;5044461;28;20068;-67
2022/09/13 06:39:00;;;;;;;1.17;0.47;;;;;;;;;;5048807;28;20423;-68
2022/09/13 06:41:29;;;;;;;0.80;0.60;;;;;;;;;;5041979;28;20049;-67
2022/09/13 06:43:58;;;;;;;0.32;0.32;;;;;;;;;;5046696;28;20056;-67
2022/09/13 06:46:27;;;;;;;0.30;0.30;;;;;;;;;;5032043;28;20049;-67
2022/09/13 06:48:56;;;;;;;0.43;0.43;;;;;;;;;;5026304;28;20149;-67
2022/09/13 06:51:25;;;;;;;2.15;0.40;;;;;;;;;;5027774;28;20473;-67
2022/09/13 06:53:55;;;;;;;0.90;0.40;;;;;;;;;;5026296;28;20056;-67
2022/09/13 06:56:26;;;;;;;0.75;0.50;;;;;;;;;;5025718;28;20133;-67
2022/09/13 06:58:56;;;;;;;0.40;0.30;;;;;;;;;;5023077;28;20042;-68
2022/09/13 07:01:25;;;;;;;1.52;0.73;;;;;;;;;;5022329;28;20053;-67
2022/09/13 07:03:54;;;;;;;0.30;0.30;;;;;;;;;;5022443;28;20049;-68
2022/09/13 07:06:24;;;;;;;0.55;0.35;;;;;;;;;;5023795;28;20132;-67
2022/09/13 07:08:52;;;;;;;0.47;0.40;;;;;;;;;;5024570;28;20049;-67
2022/09/13 07:11:22;;;;;;;0.52;0.52;;;;;;;;;;5026011;28;20059;-67
2022/09/13 07:13:53;;;;;;;0.40;0.40;;;;;;;;;;5029325;28;20069;-67
2022/09/13 07:16:23;;;;;;;2.42;0.80;;;;;;;;;;5028867;28;20053;-67
2022/09/13 07:18:52;;;;;;;0.32;0.32;;;;;;;;;;5029322;28;20042;-68
2022/09/13 07:21:22;;;;;;;1.02;0.60;;;;;;;;;;5033510;28;20048;-67
2022/09/13 07:23:51;;;;;;;1.67;0.65;;;;;;;;;;5030488;28;20041;-68
2022/09/13 07:26:20;;;;;;;0.50;0.47;;;;;;;;;;5046993;28;20081;-67
2022/09/13 07:28:49;;;;;;;1.40;0.50;;;;;;;;;;5053482;28;20516;-67
2022/09/13 07:31:20;;;;;;;0.60;0.40;;;;;;;;;;5049937;28;20136;-67
2022/09/13 07:33:49;;;;;;;0.75;0.30;;;;;;;;;;5046406;28;20440;-68
2022/09/13 07:36:18;;;;;;;0.35;0.35;;;;;;;;;;5049272;28;20052;-67
2022/09/13 07:38:47;;;;;;;0.30;0.30;;;;;;;;;;5053056;28;20045;-67
2022/09/13 07:41:16;;;;;;;0.95;0.45;;;;;;;;;;5050597;28;20520;-67
2022/09/13 07:43:45;;;;;;;0.55;0.45;;;;;;;;;;5048968;28;20120;-67
2022/09/13 07:46:14;;;;;;;4.93;0.60;;;;;;;;;;5049185;28;20406;-67
2022/09/13 07:48:44;;;;;;;1.10;0.50;;;;;;;;;;5052049;28;20493;-67
2022/09/13 07:51:14;;;;;;;0.45;0.32;;;;;;;;;;5054392;28;20066;-67
2022/09/13 07:53:43;;;;;;;0.22;0.22;;;;;;;;;;5052402;28;20049;-67
2022/09/13 07:56:12;;;;;;;0.77;0.45;;;;;;;;;;5037503;28;20516;-67
2022/09/13 07:58:42;;;;;;;1.15;1.00;;;;;;;;;;5032040;28;20470;-67
2022/09/13 08:01:11;;;;;;;0.65;0.43;;;;;;;;;;5029464;28;20045;-67
2022/09/13 08:03:40;;;;;;;2.05;0.45;;;;;;;;;;5029072;28;20049;-67
2022/09/13 08:06:11;;;;;;;0.60;0.60;;;;;;;;;;5044551;28;20102;-67
2022/09/13 08:08:39;;;;;;;0.47;0.45;;;;;;;;;;5046709;28;20485;-67
2022/09/13 08:11:08;;;;;;;0.32;0.30;;;;;;;;;;5051233;28;20493;-67
2022/09/13 08:13:36;;;;;;;2.25;0.50;;;;;;;;;;5052595;28;20120;-67
2022/09/13 08:16:07;;;;;;;0.47;0.45;;;;;;;;;;5036023;28;20057;-68
2022/09/13 08:18:36;;;;;;;3.35;0.45;;;;;;;;;;5031382;28;20073;-67
2022/09/13 08:21:07;;;;;;;0.32;0.30;;;;;;;;;;5023586;28;20057;-67
2022/09/13 08:23:37;;;;;;;1.20;0.47;;;;;;;;;;5029987;28;20053;-67
2022/09/13 08:26:06;;;;;;;0.30;0.28;;;;;;;;;;5044314;28;20075;-67
2022/09/13 08:28:35;;;;;;;4.18;1.15;;;;;;;;;;5055803;28;20049;-67
2022/09/13 08:31:07;;;;;;;0.68;0.30;;;;;;;;;;5051902;28;20049;-67
2022/09/13 08:33:36;;;;;;;0.60;0.50;;;;;;;;;;5052085;28;20060;-68
2022/09/13 08:36:08;;;;;;;0.45;0.30;;;;;;;;;;5047793;28;20044;-68
2022/09/13 08:38:38;;;;;;;1.55;0.60;;;;;;;;;;5043504;28;20045;-67
2022/09/13 08:41:22;;;;;;;0.30;0.30;;;;;;;;;;5048601;28;20465;-68
2022/09/13 08:43:55;;;;;;;0.70;0.60;;;;;;;;;;5048088;28;20598;-67
2022/09/13 08:46:25;;;;;;;2.20;0.70;;;;;;;;;;5033651;28;20820;-68
2022/09/13 08:48:55;;;;;;;0.13;0.13;;;;;;;;;;5030765;28;20048;-67
2022/09/13 08:51:32;;;;;;;0.50;0.40;;;;;;;;;;5021965;28;20150;-68
2022/09/13 08:54:03;;;;;;;0.47;0.40;;;;;;;;;;5027825;28;20050;-67
2022/09/13 08:56:36;;;;;;;0.68;0.68;;;;;;;;;;5028734;28;20049;-67
2022/09/13 08:59:09;;;;;;;0.60;0.30;;;;;;;;;;5030562;28;20045;-68
2022/09/13 09:01:47;;;;;;;0.25;0.25;;;;;;;;;;5029811;28;20046;-68
2022/09/13 09:04:17;;;;;;;0.60;0.40;;;;;;;;;;5027827;28;20041;-68
2022/09/13 09:06:46;;;;;;;0.60;0.45;;;;;;;;;;5031026;28;20060;-67
2022/09/13 09:09:18;;;;;;;1.85;0.47;;;;;;;;;;5026283;28;20046;-68
2022/09/13 09:11:49;;;;;;;0.45;0.30;;;;;;;;;;5026257;28;20046;-68
2022/09/13 09:14:21;;;;;;;0.60;0.40;;;;;;;;;;5030121;28;20053;-68
2022/09/13 09:16:52;;;;;;;0.40;0.40;;;;;;;;;;5046732;28;20096;-68
2022/09/13 09:19:22;;;;;;;0.28;0.28;;;;;;;;;;5051569;28;20132;-68
2022/09/13 09:21:51;;;;;;;0.77;0.40;;;;;;;;;;5042099;28;20124;-68
2022/09/13 09:24:24;;;;;;;0.50;0.40;;;;;;;;;;5046511;28;20060;-69
2022/09/13 09:26:53;;;;;;;0.40;0.32;;;;;;;;;;5048493;28;20091;-68
2022/09/13 09:29:25;;;;;;;0.52;0.38;;;;;;;;;;5047942;28;20048;-68
2022/09/13 09:32:07;;;;;;;0.43;0.38;;;;;;;;;;5047633;28;20052;-68
2022/09/13 09:34:44;;;;;;;0.40;0.32;;;;;;;;;;5044119;28;20048;-68
2022/09/13 09:37:15;;;;;;;1.60;0.30;;;;;;;;;;5028606;28;20065;-68
2022/09/13 09:39:45;;;;;;;0.43;0.38;;;;;;;;;;5025649;28;20052;-68
2022/09/13 09:42:16;;;;;;;0.40;0.32;;;;;;;;;;5026835;28;20400;-69
2022/09/13 09:44:46;;;;;;;0.20;0.20;;;;;;;;;;5027738;28;20089;-69
2022/09/13 09:47:16;;;;;;;2.63;0.60;;;;;;;;;;5030317;28;20107;-69
2022/09/13 09:52:36;;;;;;;0.43;0.22;;;;;;;;;;5028036;28;20054;-69
2022/09/13 09:55:13;;;;;;;4.22;0.43;;;;;;;;;;5026379;28;20053;-69
2022/09/13 09:57:51;;;;;;;0.30;0.25;;;;;;;;;;5023679;28;20075;-69
2022/09/13 10:00:24;;;;;;;0.77;0.45;;;;;;;;;;5026475;28;20136;-69
2022/09/13 10:02:54;;;;;;;0.22;0.22;;;;;;;;;;5026549;28;20139;-69
2022/09/13 10:05:25;;;;;;;0.75;0.60;;;;;;;;;;5027225;28;20049;-69
2022/09/13 10:07:58;;;;;;;0.40;0.40;;;;;;;;;;5021810;28;20049;-69
2022/09/13 10:10:32;;;;;;;0.40;0.30;;;;;;;;;;5027325;28;20136;-69
2022/09/13 10:13:01;;;;;;;0.70;0.60;;;;;;;;;;5020795;28;20088;-69
2022/09/13 10:15:33;;;;;;;0.50;0.30;;;;;;;;;;5033937;28;20048;-69
2022/09/13 10:18:03;;;;;;;2.08;1.08;;;;;;;;;;5048528;28;20136;-69
2022/09/13 10:20:31;;;;;;;0.50;0.40;;;;;;;;;;5048504;28;20045;-70
2022/09/13 10:23:17;;;;;;;0.50;0.38;;;;;;;;;;5048762;28;20052;-69
2022/09/13 10:25:57;;;;;;;1.05;0.60;;;;;;;;;;5034724;28;20060;-69
2022/09/13 10:28:26;;;;;;;2.72;0.47;;;;;;;;;;5026975;28;20061;-69
2022/09/13 10:30:56;;;;;;;1.17;0.75;;;;;;;;;;5029174;28;20049;-69
2022/09/13 10:33:27;;;;;;;0.30;0.30;;;;;;;;;;5027710;28;20054;-70
2022/09/13 10:35:57;;;;;;;0.30;0.30;;;;;;;;;;5024393;28;20540;-70
2022/09/13 10:38:29;;;;;;;0.28;0.28;;;;;;;;;;5019843;28;20080;-70
2022/09/13 10:41:00;;;;;;;0.40;0.40;;;;;;;;;;5023760;28;20049;-70
2022/09/13 10:43:30;;;;;;;0.20;0.20;;;;;;;;;;5028027;28;20711;-69
2022/09/13 10:45:59;;;;;;;0.30;0.30;;;;;;;;;;5039225;28;20491;-68
2022/09/13 10:48:30;;;;;;;0.30;0.30;;;;;;;;;;5049565;28;20126;-68
2022/09/13 10:51:05;;;;;;;0.32;0.20;;;;;;;;;;5048491;28;20057;-68
2022/09/13 10:53:35;;;;;;;0.25;0.22;;;;;;;;;;5048613;28;20045;-70
2022/09/13 10:56:07;;;;;;;0.40;0.40;;;;;;;;;;5033356;28;20493;-68
2022/09/13 10:58:35;;;;;;;1.00;0.30;;;;;;;;;;5027884;28;20049;-68
2022/09/13 11:01:14;;;;;;;0.20;0.20;;;;;;;;;;5029620;28;20069;-68
2022/09/13 11:03:51;;;;;;;0.30;0.20;;;;;;;;;;5029091;28;20112;-68
2022/09/13 11:06:23;;;;;;;0.38;0.35;;;;;;;;;;5040853;28;20053;-68
2022/09/13 11:08:56;;;;;;;0.30;0.22;;;;;;;;;;5044930;28;20056;-68
2022/09/13 11:11:31;;;;;;;0.30;0.30;;;;;;;;;;5044039;28;20554;-68
2022/09/13 11:13:59;;;;;;;;;;;;;;;;;;5039215;28;20142;-68
2022/09/13 11:16:33;;;;;;;0.28;0.20;;;;;;;;;;5038148;28;19924;-68
2022/09/13 11:19:15;;;;;;;0.40;0.30;;;;;;;;;;5037253;28;20049;-68
2022/09/13 11:21:49;;;;;;;0.40;0.32;;;;;;;;;;5038802;28;20077;-68
2022/09/13 11:24:33;;;;;;;0.75;0.43;;;;;;;;;;5047097;28;20057;-68
2022/09/13 11:27:06;;;;;;;0.93;0.40;;;;;;;;;;5033597;28;20049;-68
2022/09/13 11:29:52;;;;;;;0.20;0.20;;;;;;;;;;5024272;28;20037;-69
2022/09/13 11:32:27;;;;;;;3.03;0.43;;;;;;;;;;5019646;28;20049;-68
2022/09/13 11:35:03;;;;;;;0.25;0.22;;;;;;;;;;5028057;28;20056;-68
2022/09/13 11:37:40;;;;;;;0.77;0.35;;;;;;;;;;5044695;28;20045;-68
2022/09/13 11:40:22;;;;;;;0.50;0.50;;;;;;;;;;5044977;28;20052;-68
2022/09/13 11:42:57;;;;;;;0.22;0.22;;;;;;;;;;5036901;28;20154;-68
2022/09/13 11:45:27;;;;;;;0.75;0.40;;;;;;;;;;5035985;28;20045;-69
2022/09/13 11:48:06;;;;;;;0.52;0.30;;;;;;;;;;5019838;28;20164;-68
2022/09/13 11:50:43;;;;;;;0.60;0.45;;;;;;;;;;5020718;28;20046;-68
2022/09/13 11:53:25;;;;;;;0.30;0.30;;;;;;;;;;5026120;28;20513;-68
2022/09/13 11:56:00;;;;;;;0.28;0.20;;;;;;;;;;5013540;28;20041;-68
2022/09/13 11:58:34;;;;;;;0.20;0.20;;;;;;;;;;5021409;28;20100;-68
2022/09/13 12:01:07;;;;;;;0.55;0.30;;;;;;;;;;5025142;28;20516;-68
2022/09/13 12:03:41;;;;;;;0.30;0.30;;;;;;;;;;5020270;28;20077;-68
2022/09/13 12:06:12;;;;;;;0.52;0.40;;;;;;;;;;5038065;28;20060;-69
2022/09/13 12:08:43;;;;;;;0.47;0.30;;;;;;;;;;5049894;28;20045;-68
2022/09/13 12:11:13;;;;;;;0.30;0.30;;;;;;;;;;5048862;28;20132;-70
2022/09/13 12:13:46;;;;;;;0.93;0.50;;;;;;;;;;5050010;28;20063;-68
2022/09/13 12:16:17;;;;;;;0.30;0.30;;;;;;;;;;5050656;28;20045;-67
2022/09/13 12:18:48;;;;;;;0.93;0.30;;;;;;;;;;5047680;28;20110;-68
2022/09/13 12:21:18;;;;;;;0.63;0.32;;;;;;;;;;5047771;28;20049;-68
2022/09/13 12:23:50;;;;;;;0.45;0.45;;;;;;;;;;5044125;28;20061;-69
2022/09/13 12:26:21;;;;;;;0.70;0.47;;;;;;;;;;5042920;28;20065;-68
2022/09/13 12:28:53;;;;;;;0.30;0.30;;;;;;;;;;5046034;28;20069;-68
2022/09/13 12:31:24;;;;;;;0.50;0.50;;;;;;;;;;5042203;28;20053;-68
2022/09/13 12:33:52;;;;;;;0.43;0.30;;;;;;;;;;5044991;28;20386;-68
2022/09/13 12:36:30;;;;;;;0.35;0.28;;;;;;;;;;5042948;28;20049;-68
2022/09/13 12:39:15;;;;;;;0.28;0.28;;;;;;;;;;5045067;28;21052;-68
2022/09/13 12:41:49;;;;;;;0.43;0.43;;;;;;;;;;5042768;28;20044;-68
2022/09/13 12:44:31;;;;;;;0.55;0.40;;;;;;;;;;5042584;28;20037;-68
2022/09/13 12:47:13;;;;;;;0.60;0.30;;;;;;;;;;5037560;28;20160;-69
2022/09/13 12:49:50;;;;;;;0.20;0.20;;;;;;;;;;5023170;28;20384;-68
2022/09/13 12:52:26;;;;;;;0.30;0.30;;;;;;;;;;5023664;28;20107;-68
2022/09/13 12:55:09;;;;;;;0.35;0.30;;;;;;;;;;5029044;28;20460;-68
2022/09/13 12:58:00;;;;;;;0.20;0.20;;;;;;;;;;5025010;28;20064;-69
2022/09/13 13:00:31;;;;;;;1.15;0.17;;;;;;;;;;5025055;28;20049;-69
2022/09/13 13:03:10;;;;;;;1.55;0.57;;;;;;;;;;5017684;28;20045;-69
2022/09/13 13:05:40;;;;;;;0.20;0.20;;;;;;;;;;5028166;28;20431;-69
2022/09/13 13:08:19;;;;;;;0.45;0.30;;;;;;;;;;5043295;28;20055;-69
2022/09/13 13:11:02;;;;;;;0.80;0.30;;;;;;;;;;5041930;28;20040;-69
2022/09/13 13:13:37;;;;;;;0.30;0.30;;;;;;;;;;5036276;28;20140;-69
2022/09/13 13:16:27;;;;;;;1.48;0.10;;;;;;;;;;5037031;28;20051;-69
2022/09/13 13:18:56;;;;;;;0.30;0.20;;;;;;;;;;5040558;28;20082;-69
2022/09/13 13:21:27;;;;;;;0.20;0.20;;;;;;;;;;5043056;28;20048;-69
2022/09/13 13:24:14;;;;;;;0.20;0.20;;;;;;;;;;5042612;28;20060;-69
2022/09/13 13:26:47;;;;;;;0.22;0.22;;;;;;;;;;5021066;28;20133;-69
2022/09/13 13:29:17;;;;;;;0.60;0.30;;;;;;;;;;5022448;28;20501;-69
2022/09/13 13:32:06;;;;;;;1.08;0.57;;;;;;;;;;5022524;28;20406;-69
2022/09/13 13:34:38;;;;;;;0.20;0.20;;;;;;;;;;5026640;28;20049;-69
2022/09/13 13:37:23;;;;;;;0.35;0.22;;;;;;;;;;5033105;28;20128;-70
2022/09/13 13:39:51;;;;;;;;;;;;;;;;;;5027516;28;20054;-69
2022/09/13 13:42:26;;;;;;;0.28;0.25;;;;;;;;;;5020567;28;19921;-69
2022/09/13 13:45:06;;;;;;;0.25;0.20;;;;;;;;;;5032121;28;20568;-69
2022/09/13 13:47:53;;;;;;;0.30;0.30;;;;;;;;;;5048155;28;20068;-69
2022/09/13 13:50:21;;;;;;;3.67;0.20;;;;;;;;;;5047841;28;20056;-69
2022/09/13 13:52:55;;;;;;;0.28;0.20;;;;;;;;;;5050619;28;20051;-70
2022/09/13 13:55:32;;;;;;;0.87;0.20;;;;;;;;;;5049540;28;20063;-70
2022/09/13 13:58:01;;;;;;;0.10;0.10;;;;;;;;;;5049214;28;20131;-69
2022/09/13 14:00:31;;;;;;;2.30;0.30;;;;;;;;;;5048652;28;20194;-70
2022/09/13 14:03:09;;;;;;;0.15;0.13;;;;;;;;;;5045064;28;20136;-70
2022/09/13 14:05:41;;;;;;;0.10;0.10;;;;;;;;;;5036811;28;20112;-70
2022/09/13 14:08:32;;;;;;;0.20;0.20;;;;;;;;;;5027064;28;20136;-70
2022/09/13 14:11:09;;;;;;;1.35;0.15;;;;;;;;;;5026924;28;20049;-69
2022/09/13 14:13:45;;;;;;;0.17;0.13;;;;;;;;;;5030497;28;20077;-69
2022/09/13 14:16:20;;;;;;;0.30;0.20;;;;;;;;;;5024877;28;20436;-69
2022/09/13 14:19:14;;;;;;;0.40;0.35;;;;;;;;;;5024045;28;20401;-70
2022/09/13 14:21:44;;;;;;;0.20;0.20;;;;;;;;;;5023353;28;20500;-70
2022/09/13 14:24:21;;;;;;;0.40;0.40;;;;;;;;;;5025865;28;20065;-69
2022/09/13 14:26:50;;;;;;;1.63;0.30;;;;;;;;;;5025409;28;20045;-69
2022/09/13 14:29:20;;;;;;;0.10;0.10;;;;;;;;;;5028893;28;20049;-70
2022/09/13 14:31:49;;;;;;;0.20;0.20;;;;;;;;;;5024313;28;20077;-69
2022/09/13 14:34:21;;;;;;;0.17;0.17;;;;;;;;;;5024919;28;20111;-69
2022/09/13 14:36:55;;;;;;;0.38;0.30;;;;;;;;;;5032418;28;20531;-69
2022/09/13 14:39:24;;;;;;;0.20;0.20;;;;;;;;;;5022991;28;20053;-69
2022/09/13 14:41:59;;;;;;;0.25;0.20;;;;;;;;;;5023540;28;20132;-69
2022/09/13 14:44:28;;;;;;;1.13;0.30;;;;;;;;;;5028824;28;20049;-70
2022/09/13 14:47:01;;;;;;;0.10;0.10;;;;;;;;;;5029478;28;20046;-69
2022/09/13 14:49:33;;;;;;;0.20;0.20;;;;;;;;;;5033108;28;20139;-69
2022/09/13 14:52:05;;;;;;;0.47;0.20;;;;;;;;;;5027438;28;20050;-69
2022/09/13 14:54:36;;;;;;;0.30;0.30;;;;;;;;;;5027820;28;20045;-70
2022/09/13 14:57:06;;;;;;;0.80;0.25;;;;;;;;;;5029369;28;20136;-69
2022/09/13 14:59:36;;;;;;;4.05;0.28;;;;;;;;;;5027983;28;20053;-69
2022/09/13 15:02:08;;;;;;;0.95;0.17;;;;;;;;;;5027893;28;20047;-69
2022/09/13 15:04:41;;;;;;;0.10;0.10;;;;;;;;;;5024753;28;20049;-70
2022/09/13 15:07:20;;;;;;;0.10;0.10;;;;;;;;;;5027810;28;20042;-69
2022/09/13 15:09:50;;;;;;;0.45;0.35;;;;;;;;;;5026030;28;20049;-69
2022/09/13 15:12:24;;;;;;;0.10;0.10;;;;;;;;;;5024947;28;20477;-70
2022/09/13 15:14:52;;;;;;;;;;;;;;;;;;5032332;28;20055;-69